Stockton, CA (95201)

5:27 AM PST on December 05, 2016 (GMT -0800)
Carlton Ave/Acacia Ct | | Change Station

Elev 8 ft 37.96 °N, 121.33 °W | Updated 46 seconds ago

Mostly Cloudy
Mostly Cloudy
41.0 °F
Feels Like 41 °F
N
0.0
Wind Variable Wind from WNW
Gusts 0.0 mph

Today
High -- | Low -- °F
--% Chance of Precip.
Yesterday
High -- | Low -- °F
Precip. -- in
Pressure 30.07 in
Visibility 2.5 miles
Clouds Mostly Cloudy 400 ft
Windchill 41 °F
Dew Point 41 °F
Humidity 99%
Rainfall in
Snow Depth Not available.
7:06 AM 4:45 PM
Waxing Crescent, 31% visible
SPECI KSCK 051314Z AUTO 00000KT 2 1/2SM BR BKN004 03/03 A3007 RMK AO2 T00280028
Pressure 30.07 in
Visibility 2.5 miles
Clouds Mostly Cloudy 400 ft
Windchill 41 °F
Dew Point 41 °F
Humidity 99%
Rainfall in
Snow Depth Not available.
7:06 AM 4:45 PM
Waxing Crescent, 31% visible
SPECI KSCK 051314Z AUTO 00000KT 2 1/2SM BR BKN004 03/03 A3007 RMK AO2 T00280028

10-Day Weather Forecast

Almanac

Astronomy

Dec. 05, 2016 Rise Set
Actual Time
Civil Twilight
Nautical Twilight
Astronomical Twilight
Moon
Length of Visible Light
Length of Day
Tomorrow will be .
, % of the Moon is Illuminated

Today's Extremes

State Highs State Lows

Community

WunderPhotos

Upload Photos

1,955,780 photos uploaded!

WunderBlog® & News

Nearby

Air Quality

  Air Quality AQ Index Pollutant
Not available.

Snow Depth

Station Depth Elevation

Earthquake Activity

City Distance Mag. Time & Date
Minimum magnitude displayed is 2.5.

Coastal Water Temperatures

Place Temperature

Stations

Nearby Weather Stations

Station Location Temp. Windchill Dew Point Humidity Wind Precip. Elev Updated Type
                   

Watches & Warnings

There are currently no watches in effect.